Time;durP1;ratioP1;P1;durP2;ratioP2;P2;SDS_P1;SDS_P2;PMS_P1;PMS_P2;Temp;Humidity;BMP_temperature;BMP_pressure;BME280_temperature;BME280_humidity;BME280_pressure;Samples;Min_cycle;Max_cycle;Signal;HPM_P1;HPM_P2
2023/04/08 00:00:24;;;;;;;;;;;;;;;10.48;50.86;100746.91;4980993;28;19922;-84
2023/04/08 00:03:21;;;;;;;;;;;;;;;10.75;49.86;100743.97;4982416;28;19922;-84
2023/04/08 00:06:10;;;;;;;;;;;;;;;10.88;49.45;100743.03;4980679;28;19926;-84
2023/04/08 00:09:02;;;;;;;;;;;;;;;10.94;49.17;100746.41;4980164;28;19918;-84
2023/04/08 00:11:54;;;;;;;;;;;;;;;10.73;48.79;100748.91;4986359;28;19918;-85
2023/04/08 00:14:48;;;;;;;;;;;;;;;10.71;49.05;100740.28;4982831;28;19913;-84
2023/04/08 00:29:38;;;;;;;;;;;;;;;10.66;50.04;100740.44;4991995;28;19922;-84
2023/04/08 00:39:52;;;;;;;;;;;;;;;9.74;51.98;100736.56;4969855;28;19923;-83
2023/04/08 00:42:42;;;;;;;;;;;;;;;9.94;51.73;100742.59;4986586;28;19922;-84
2023/04/08 00:45:34;;;;;;;;;;;;;;;10.19;50.94;100737.34;4985848;28;20317;-83
2023/04/08 00:48:27;;;;;;;;;;;;;;;10.38;50.64;100733.59;4985442;28;19922;-82
2023/04/08 00:51:16;;;;;;;;;;;;;;;10.27;50.71;100731.16;4982297;28;20377;-82
2023/04/08 00:54:08;;;;;;;;;;;;;;;10.27;50.85;100736.56;4988283;28;20301;-82
2023/04/08 00:56:58;;;;;;;;;;;;;;;10.36;50.64;100738.56;4993720;28;19922;-83
2023/04/08 00:59:50;;;;;;;;;;;;;;;10.45;50.16;100731.22;4988804;28;19922;-82
2023/04/08 01:02:46;;;;;;;;;;;;;;;10.50;50.16;100739.25;4987268;28;19918;-83
2023/04/08 01:17:45;;;;;;;;;;;;;;;10.29;50.18;100739.00;5002720;28;19922;-83
2023/04/08 01:24:54;;;;;;;;;;;;;;;10.24;49.51;100729.06;4993169;28;20305;-84
2023/04/08 01:27:47;;;;;;;;;;;;;;;10.16;50.02;100727.09;4995680;28;19918;-81
2023/04/08 01:30:39;;;;;;;;;;;;;;;10.12;49.97;100722.56;4983061;28;19918;-81
2023/04/08 01:33:33;;;;;;;;;;;;;;;10.13;49.55;100722.25;4981139;28;19914;-81
2023/04/08 01:36:24;;;;;;;;;;;;;;;9.99;50.09;100716.13;4989846;28;19914;-82
2023/04/08 01:39:16;;;;;;;;;;;;;;;9.70;50.13;100721.97;4985356;28;19914;-81
2023/04/08 01:42:06;;;;;;;;;;;;;;;9.68;50.51;100717.97;4990705;28;19913;-82
2023/04/08 01:44:59;;;;;;;;;;;;;;;9.72;50.26;100725.19;4990806;28;19914;-82
2023/04/08 01:47:51;;;;;;;;;;;;;;;9.63;50.72;100731.69;4981544;28;19914;-81
2023/04/08 01:50:44;;;;;;;;;;;;;;;9.64;50.45;100728.66;4979978;28;19922;-82
2023/04/08 01:53:36;;;;;;;;;;;;;;;9.61;50.49;100723.03;4980907;28;20449;-81
2023/04/08 01:56:30;;;;;;;;;;;;;;;9.58;51.09;100724.47;4983628;28;19914;-81
2023/04/08 01:59:22;;;;;;;;;;;;;;;9.67;50.65;100728.03;4981106;28;19914;-80
2023/04/08 02:02:16;;;;;;;;;;;;;;;9.77;50.42;100729.69;4983313;28;19914;-80
2023/04/08 02:05:08;;;;;;;;;;;;;;;9.79;50.21;100722.06;4980578;28;20361;-81
2023/04/08 02:08:00;;;;;;;;;;;;;;;9.68;50.94;100721.50;4983289;28;20312;-81
2023/04/08 02:10:52;;;;;;;;;;;;;;;9.84;50.06;100724.66;4984770;28;20297;-82
2023/04/08 02:13:44;;;;;;;;;;;;;;;9.81;50.18;100717.09;4978638;28;19917;-81
2023/04/08 02:16:51;;;;;;;;;;;;;;;9.64;50.72;100728.66;4985722;28;19918;-81
2023/04/08 02:19:46;;;;;;;;;;;;;;;9.63;51.12;100727.06;4978756;28;19914;-82
2023/04/08 02:22:38;;;;;;;;;;;;;;;9.67;50.95;100733.47;4983295;28;20382;-81
2023/04/08 02:25:31;;;;;;;;;;;;;;;9.52;51.32;100730.31;4984874;28;19914;-81
2023/04/08 02:28:23;;;;;;;;;;;;;;;9.58;51.02;100729.09;4979286;28;19914;-81
2023/04/08 02:31:22;;;;;;;;;;;;;;;9.69;50.61;100725.84;4978482;28;20311;-82
2023/04/08 02:34:14;;;;;;;;;;;;;;;9.67;50.16;100724.53;5002285;28;19906;-82
2023/04/08 02:37:04;;;;;;;;;;;;;;;9.61;50.45;100723.03;5001939;28;19922;-81
2023/04/08 02:39:56;;;;;;;;;;;;;;;9.59;50.53;100725.28;5001552;28;19906;-82
2023/04/08 02:42:44;;;;;;;;;;;;;;;9.70;49.47;100727.41;5007530;28;19921;-82
2023/04/08 02:45:43;;;;;;;;;;;;;;;9.59;49.52;100730.69;5000723;28;19918;-80
2023/04/08 02:48:35;;;;;;;;;;;;;;;9.59;49.58;100730.69;5003469;28;19906;-82
2023/04/08 02:51:27;;;;;;;;;;;;;;;9.56;49.38;100726.66;5000869;28;19906;-82
2023/04/08 02:54:19;;;;;;;;;;;;;;;9.63;49.56;100718.09;5001146;28;19906;-82
2023/04/08 02:57:11;;;;;;;;;;;;;;;9.75;48.94;100718.38;5002226;28;19906;-82
2023/04/08 03:00:04;;;;;;;;;;;;;;;9.76;48.87;100722.66;5001175;28;19918;-82
2023/04/08 03:02:56;;;;;;;;;;;;;;;9.79;49.21;100725.59;5002234;28;19922;-82
2023/04/08 03:05:50;;;;;;;;;;;;;;;9.85;49.09;100718.88;5005682;28;19906;-81
2023/04/08 03:09:03;;;;;;;;;;;;;;;9.82;48.43;100718.72;5003791;28;19926;-84
2023/04/08 03:15:41;;;;;;;;;;;;;;;9.94;48.59;100710.81;5526833;23;19913;-83
2023/04/08 03:18:31;;;;;;;;;;;;;;;10.03;48.41;100708.94;4985153;28;19907;-83
2023/04/08 03:21:23;;;;;;;;;;;;;;;10.07;48.18;100709.91;4988516;28;19906;-82
2023/04/08 03:24:15;;;;;;;;;;;;;;;10.14;47.69;100718.44;4982394;28;19906;-83
2023/04/08 03:27:07;;;;;;;;;;;;;;;9.92;48.02;100709.50;4982153;28;19906;-81
2023/04/08 03:29:59;;;;;;;;;;;;;;;10.00;48.34;100711.47;4982061;28;19926;-83
2023/04/08 03:32:51;;;;;;;;;;;;;;;9.86;48.59;100715.06;4982168;28;19907;-82
2023/04/08 03:35:43;;;;;;;;;;;;;;;9.88;48.36;100710.13;4988065;28;19906;-82
2023/04/08 03:38:36;;;;;;;;;;;;;;;9.77;48.78;100721.56;4981423;28;19906;-83
2023/04/08 03:41:27;;;;;;;;;;;;;;;10.04;48.19;100715.19;4981850;28;19937;-81
2023/04/08 03:44:20;;;;;;;;;;;;;;;9.99;48.75;100723.47;4981804;28;19906;-82
2023/04/08 03:47:12;;;;;;;;;;;;;;;10.07;48.53;100726.22;4981459;28;19918;-82
2023/04/08 03:49:59;;;;;;;;;;;;;;;10.11;48.58;100727.19;4971166;28;19930;-82
2023/04/08 03:52:51;;;;;;;;;;;;;;;10.20;48.13;100730.81;4999917;28;19906;-82
2023/04/08 03:55:41;;;;;;;;;;;;;;;9.87;49.58;100727.53;4998918;28;19913;-82
2023/04/08 03:58:33;;;;;;;;;;;;;;;10.00;49.52;100734.03;4996785;28;19922;-82
2023/04/08 04:01:25;;;;;;;;;;;;;;;9.96;49.28;100735.72;4982108;28;19914;-81
2023/04/08 04:04:14;;;;;;;;;;;;;;;9.76;49.35;100730.81;4975890;28;19914;-82
2023/04/08 04:07:06;;;;;;;;;;;;;;;9.87;49.75;100732.16;4990914;28;19914;-82
2023/04/08 04:10:01;;;;;;;;;;;;;;;10.06;49.10;100732.75;4989618;28;19918;-82
2023/04/08 04:12:53;;;;;;;;;;;;;;;10.06;49.47;100729.22;4994825;28;19914;-82
2023/04/08 04:15:43;;;;;;;;;;;;;;;10.00;49.03;100730.50;4990199;28;19914;-82
2023/04/08 04:24:24;;;;;;;;;;;;;;;9.98;49.60;100733.53;5876010;23;19923;-82
2023/04/08 04:27:16;;;;;;;;;;;;;;;9.83;49.86;100736.63;4964660;28;19923;-82
2023/04/08 04:30:06;;;;;;;;;;;;;;;9.92;50.29;100744.81;4934668;29;19919;-83
2023/04/08 04:32:58;;;;;;;;;;;;;;;9.43;51.87;100746.53;4935369;29;19915;-81
2023/04/08 04:35:50;;;;;;;;;;;;;;;9.49;51.94;100745.31;4936975;29;20371;-81
2023/04/08 04:38:42;;;;;;;;;;;;;;;9.56;51.45;100745.69;4932408;29;19915;-82
2023/04/08 04:41:37;;;;;;;;;;;;;;;9.47;51.36;100747.53;4941004;28;19907;-83
2023/04/08 04:44:55;;;;;;;;;;;;;;;9.33;51.63;100758.44;4946107;28;19907;-82
2023/04/08 04:47:42;;;;;;;;;;;;;;;9.15;52.55;100767.50;4942874;28;19923;-80
2023/04/08 04:50:40;;;;;;;;;;;;;;;9.29;52.28;100781.06;4939886;28;19908;-83
2023/04/08 04:54:14;;;;;;;;;;;;;;;9.41;51.77;100781.31;4938710;28;19907;-81
2023/04/08 04:57:10;;;;;;;;;;;;;;;9.73;50.33;100774.88;4930295;28;19907;-83
2023/04/08 05:00:04;;;;;;;;;;;;;;;9.87;50.01;100767.47;4923716;29;19907;-83
2023/04/08 05:03:34;;;;;;;;;;;;;;;10.07;49.50;100769.69;4923364;29;19931;-83
2023/04/08 05:06:32;;;;;;;;;;;;;;;10.03;49.79;100785.00;4933352;28;19906;-82
2023/04/08 05:15:21;;;;;;;;;;;;;;;9.98;49.31;100781.59;5228294;23;19913;-82
2023/04/08 05:18:11;;;;;;;;;;;;;;;9.99;49.38;100783.22;4942944;28;19923;-80
2023/04/08 05:21:01;;;;;;;;;;;;;;;10.01;49.46;100786.41;4929212;29;19915;-80
2023/04/08 05:23:52;;;;;;;;;;;;;;;10.00;50.17;100790.25;4940055;29;19918;-81
2023/04/08 05:26:46;;;;;;;;;;;;;;;9.98;50.53;100785.13;4936504;28;20379;-81
2023/04/08 05:29:38;;;;;;;;;;;;;;;10.03;50.57;100793.16;4937407;29;19922;-80
2023/04/08 05:32:28;;;;;;;;;;;;;;;9.92;51.04;100799.94;4948912;28;20306;-80
2023/04/08 05:35:20;;;;;;;;;;;;;;;9.82;51.48;100809.13;4925581;29;19915;-81
2023/04/08 05:38:29;;;;;;;;;;;;;;;9.78;51.93;100810.06;4943269;29;19914;-80
2023/04/08 05:41:21;;;;;;;;;;;;;;;9.77;52.16;100813.88;4943651;29;19915;-80
2023/04/08 05:44:15;;;;;;;;;;;;;;;9.65;53.12;100816.34;4926133;29;19915;-80
2023/04/08 05:47:06;;;;;;;;;;;;;;;9.80;52.71;100818.72;4941329;29;19915;-82
2023/04/08 05:50:00;;;;;;;;;;;;;;;9.80;52.99;100835.00;4941852;28;19923;-82
2023/04/08 05:52:50;;;;;;;;;;;;;;;9.82;53.34;100839.00;4932825;29;19919;-82
2023/04/08 05:55:44;;;;;;;;;;;;;;;9.75;54.08;100837.84;4934646;29;19915;-81
2023/04/08 05:58:40;;;;;;;;;;;;;;;9.76;54.23;100842.13;4962588;28;20164;-81
2023/04/08 06:01:53;;;;;;;;;;;;;;;9.78;54.14;100834.50;4956644;29;19899;-81
2023/04/08 06:04:46;;;;;;;;;;;;;;;9.86;54.70;100831.03;4954170;28;19927;-80
2023/04/08 06:13:24;;;;;;;;;;;;;;;10.05;54.07;100837.13;5311590;23;19907;-81
2023/04/08 07:00:14;;;;;;;;;;;;;;;10.78;54.40;100865.72;4650355;23;19922;-78
2023/04/08 07:03:10;;;;;;;;;;;;;;;11.02;53.84;100866.16;4941010;29;19919;-78
2023/04/08 07:06:03;;;;;;;;;;;;;;;11.30;53.13;100860.50;4931777;29;19915;-78
2023/04/08 07:09:18;;;;;;;;;;;;;;;11.62;52.63;100862.81;4937941;29;19923;-78
2023/04/08 07:12:15;;;;;;;;;;;;;;;10.88;53.67;100860.03;4925348;29;20283;-79
2023/04/08 07:15:09;;;;;;;;;;;;;;;10.71;54.06;100868.13;4924715;29;20275;-78
2023/04/08 07:18:20;;;;;;;;;;;;;;;10.55;54.23;100870.44;4924831;29;19914;-78
2023/04/08 07:21:12;;;;;;;;;;;;;;;10.49;54.74;100868.94;4897324;29;20295;-78
2023/04/08 07:24:04;;;;;;;;;;;;;;;10.18;56.18;100871.59;4918095;29;19915;-77
2023/04/08 07:26:55;;;;;;;;;;;;;;;10.34;56.72;100868.53;4892369;29;19915;-77
2023/04/08 07:29:47;;;;;;;;;;;;;;;10.57;56.30;100867.38;4920489;29;19920;-78
2023/04/08 07:32:39;;;;;;;;;;;;;;;14.26;46.27;100873.44;4910685;29;19920;-78
2023/04/08 07:35:29;;;;;;;;;;;;;;;16.57;40.35;100874.13;4890357;29;19920;-78
2023/04/08 07:38:21;;;;;;;;;;;;;;;18.07;37.50;100873.84;4883199;29;20375;-78
2023/04/08 07:41:13;;;;;;;;;;;;;;;19.41;35.25;100879.03;4892866;29;20403;-77
2023/04/08 07:44:05;;;;;;;;;;;;;;;20.20;32.68;100881.75;4913752;29;19915;-78
2023/04/08 07:46:57;;;;;;;;;;;;;;;18.45;35.96;100886.78;4911223;29;19915;-78
2023/04/08 07:49:47;;;;;;;;;;;;;;;18.71;34.53;100886.94;4914366;29;19919;-78
2023/04/08 07:52:36;;;;;;;;;;;;;;;19.46;33.76;100887.03;4898418;29;19915;-82
2023/04/08 07:55:28;;;;;;;;;;;;;;;19.83;33.06;100880.88;4910924;29;19916;-80
2023/04/08 07:58:20;;;;;;;;;;;;;;;21.12;31.51;100891.03;4894291;29;19919;-77
2023/04/08 08:01:20;;;;;;;;;;;;;;;21.13;31.58;100895.38;4897269;29;19916;-80
2023/04/08 08:04:12;;;;;;;;;;;;;;;24.16;26.68;100901.34;4900874;29;19916;-80
2023/04/08 08:07:05;;;;;;;;;;;;;;;25.47;25.00;100898.53;4912802;29;19919;-80
2023/04/08 08:09:57;;;;;;;;;;;;;;;27.01;22.52;100901.06;4902724;29;20383;-80
2023/04/08 08:12:49;;;;;;;;;;;;;;;28.83;20.60;100888.78;4901834;29;21243;-79
2023/04/08 08:15:38;;;;;;;;;;;;;;;29.07;20.35;100892.97;4914628;29;19919;-79
2023/04/08 08:18:30;;;;;;;;;;;;;;;29.76;19.38;100897.19;4893103;29;20299;-80
2023/04/08 08:21:23;;;;;;;;;;;;;;;27.73;21.36;100895.88;4894472;29;19916;-80
2023/04/08 08:24:12;;;;;;;;;;;;;;;29.40;20.18;100893.78;4904932;29;19915;-81
2023/04/08 08:27:04;;;;;;;;;;;;;;;30.03;19.07;100890.47;4894415;29;19915;-80
2023/04/08 08:29:56;;;;;;;;;;;;;;;29.50;19.44;100892.72;4896142;29;19919;-80
2023/04/08 08:32:48;;;;;;;;;;;;;;;29.34;19.30;100889.94;4893399;29;19915;-80
2023/04/08 08:35:40;;;;;;;;;;;;;;;30.16;18.63;100894.09;4899846;29;19919;-80
2023/04/08 08:38:32;;;;;;;;;;;;;;;26.30;22.50;100888.91;4898564;29;19916;-80
2023/04/08 08:41:25;;;;;;;;;;;;;;;24.29;25.97;100888.59;4895836;29;20375;-81
2023/04/08 08:44:17;;;;;;;;;;;;;;;27.45;21.68;100897.94;4913391;29;19915;-80
2023/04/08 08:47:09;;;;;;;;;;;;;;;29.23;19.95;100900.59;4893988;29;20295;-80
2023/04/08 08:50:01;;;;;;;;;;;;;;;31.15;17.81;100901.50;4898853;29;19920;-81
2023/04/08 08:52:54;;;;;;;;;;;;;;;31.10;17.27;100902.84;4898984;29;19915;-81
2023/04/08 08:55:46;;;;;;;;;;;;;;;31.91;16.73;100907.69;4911595;29;19915;-82
2023/04/08 08:58:38;;;;;;;;;;;;;;;30.45;18.05;100911.66;4896473;29;20399;-81
2023/04/08 09:01:36;;;;;;;;;;;;;;;29.40;19.42;100907.00;4894890;29;19915;-79
2023/04/08 09:04:25;;;;;;;;;;;;;;;29.20;20.36;100907.06;4897053;29;19915;-81
2023/04/08 09:07:15;;;;;;;;;;;;;;;29.90;19.23;100898.06;4899261;29;20380;-80
2023/04/08 09:10:04;;;;;;;;;;;;;;;31.24;17.00;100895.97;4896159;29;19919;-81
2023/04/08 09:12:59;;;;;;;;;;;;;;;28.56;18.87;100891.75;4900831;29;19916;-79
2023/04/08 09:16:06;;;;;;;;;;;;;;;24.99;24.20;100889.44;4902665;29;19919;-78
2023/04/08 09:19:08;;;;;;;;;;;;;;;22.77;26.43;100881.25;4909245;29;19919;-79
2023/04/08 09:22:10;;;;;;;;;;;;;;;29.40;16.25;100896.59;4896886;29;19938;-80
2023/04/08 09:25:01;;;;;;;;;;;;;;;28.57;14.38;100878.53;4896154;29;19915;-80
2023/04/08 09:27:53;;;;;;;;;;;;;;;31.06;13.02;100884.53;4897197;29;19915;-78
2023/04/08 09:30:45;;;;;;;;;;;;;;;33.08;13.17;100887.03;4897320;29;19919;-80
2023/04/08 09:33:37;;;;;;;;;;;;;;;32.43;13.55;100889.28;4896544;29;19916;-76
2023/04/08 09:36:29;;;;;;;;;;;;;;;28.05;16.12;100885.63;4900950;29;19915;-77
2023/04/08 09:39:21;;;;;;;;;;;;;;;24.37;19.72;100873.50;4896626;29;20328;-78
2023/04/08 09:42:13;;;;;;;;;;;;;;;23.06;21.90;100875.75;4899977;29;20306;-77
2023/04/08 09:45:05;;;;;;;;;;;;;;;21.01;23.77;100870.78;4896892;29;19915;-76
2023/04/08 09:48:04;;;;;;;;;;;;;;;28.38;16.88;100872.56;4896139;29;20380;-75
2023/04/08 09:50:59;;;;;;;;;;;;;;;30.68;14.58;100881.75;4898743;29;19919;-75
2023/04/08 09:53:49;;;;;;;;;;;;;;;32.21;13.21;100886.50;4896753;29;19919;-76
2023/04/08 09:56:42;;;;;;;;;;;;;;;32.00;12.54;100882.41;4900432;29;19919;-77
2023/04/08 09:59:36;;;;;;;;;;;;;;;32.55;14.72;100877.16;4896115;29;19915;-76
2023/04/08 10:02:27;;;;;;;;;;;;;;;32.39;15.06;100880.97;4896647;29;20323;-75
2023/04/08 10:05:19;;;;;;;;;;;;;;;34.38;13.41;100878.94;4912960;29;19998;-76
2023/04/08 10:08:08;;;;;;;;;;;;;;;34.78;11.35;100883.50;4897522;29;19938;-76
2023/04/08 10:11:00;;;;;;;;;;;;;;;27.95;16.37;100864.25;4896382;29;19923;-77
2023/04/08 10:13:52;;;;;;;;;;;;;;;24.73;20.05;100867.72;4895672;29;19915;-78
2023/04/08 10:16:44;;;;;;;;;;;;;;;23.97;22.50;100865.72;4903669;29;19916;-75
2023/04/08 10:19:40;;;;;;;;;;;;;;;22.52;24.48;100858.22;4916968;29;19916;-77
2023/04/08 10:22:32;;;;;;;;;;;;;;;22.03;24.56;100859.66;4917143;29;19923;-78
2023/04/08 10:25:22;;;;;;;;;;;;;;;27.65;18.85;100861.66;4911473;29;19915;-78
2023/04/08 10:28:15;;;;;;;;;;;;;;;31.30;13.83;100869.66;4895731;29;19916;-78
2023/04/08 10:31:05;;;;;;;;;;;;;;;33.81;12.43;100873.06;4919651;29;19919;-78
2023/04/08 10:33:55;;;;;;;;;;;;;;;32.47;12.47;100861.75;4910231;29;20360;-79
2023/04/08 10:36:47;;;;;;;;;;;;;;;33.13;11.79;100865.13;4912496;29;20279;-77
2023/04/08 10:39:39;;;;;;;;;;;;;;;33.01;11.74;100862.00;4930439;29;19915;-78
2023/04/08 10:42:31;;;;;;;;;;;;;;;27.46;17.12;100854.03;4918704;29;19919;-78
2023/04/08 10:45:23;;;;;;;;;;;;;;;25.26;21.86;100851.41;4916541;29;20299;-77
2023/04/08 10:48:19;;;;;;;;;;;;;;;23.82;24.13;100848.31;4899234;29;19923;-76
2023/04/08 10:51:10;;;;;;;;;;;;;;;22.73;21.76;100841.66;4899095;29;20573;-78
2023/04/08 10:54:09;;;;;;;;;;;;;;;25.03;20.63;100842.88;4896457;29;19915;-76
2023/04/08 10:57:02;;;;;;;;;;;;;;;30.25;13.83;100851.34;4884367;29;20307;-77
2023/04/08 10:59:54;;;;;;;;;;;;;;;32.87;11.94;100853.31;4900776;29;19915;-77
2023/04/08 11:02:43;;;;;;;;;;;;;;;30.97;12.36;100851.50;4898354;29;19916;-76
2023/04/08 11:05:33;;;;;;;;;;;;;;;33.65;10.49;100845.13;4921937;29;19916;-75
2023/04/08 11:08:28;;;;;;;;;;;;;;;31.04;14.37;100845.66;4899122;29;20311;-77
2023/04/08 11:11:20;;;;;;;;;;;;;;;31.86;15.12;100843.56;4924671;29;19923;-76
2023/04/08 11:14:12;;;;;;;;;;;;;;;30.47;16.20;100844.69;4928322;29;19915;-77
2023/04/08 11:17:04;;;;;;;;;;;;;;;33.25;14.91;100847.34;4899018;29;19915;-77
2023/04/08 11:19:56;;;;;;;;;;;;;;;32.47;11.92;100842.06;4899754;29;19915;-77
2023/04/08 11:22:46;;;;;;;;;;;;;;;29.35;16.51;100832.66;4899031;29;19915;-76
2023/04/08 11:25:35;;;;;;;;;;;;;;;25.25;17.82;100829.53;4898209;29;19915;-76
2023/04/08 11:28:27;;;;;;;;;;;;;;;22.46;20.48;100813.44;4901100;29;19915;-78
2023/04/08 11:31:19;;;;;;;;;;;;;;;20.96;22.45;100820.56;4898920;29;19920;-76
2023/04/08 11:34:10;;;;;;;;;;;;;;;20.74;23.23;100822.34;4898625;29;19915;-78
2023/04/08 11:37:02;;;;;;;;;;;;;;;20.28;24.29;100824.63;4896507;29;19915;-77
2023/04/08 11:39:53;;;;;;;;;;;;;;;20.38;24.72;100813.72;4899308;29;19916;-77
2023/04/08 11:42:38;;;;;;;;;;;;;;;19.41;23.87;100812.84;4929831;29;19915;-77
2023/04/08 11:45:27;;;;;;;;;;;;;;;19.59;24.43;100811.19;4919920;29;19915;-76
2023/04/08 11:48:19;;;;;;;;;;;;;;;19.61;23.34;100808.84;4898986;29;19915;-77
2023/04/08 11:51:11;;;;;;;;;;;;;;;19.74;27.21;100808.59;4896612;29;19923;-78
2023/04/08 11:54:05;;;;;;;;;;;;;;;20.02;29.02;100815.25;4894791;29;19924;-75
2023/04/08 11:56:52;;;;;;;;;;;;;;;20.03;29.36;100807.78;4917449;29;19915;-77
2023/04/08 11:59:44;;;;;;;;;;;;;;;20.12;26.87;100813.00;4908697;29;19915;-77
2023/04/08 12:02:34;;;;;;;;;;;;;;;20.19;30.23;100805.59;4918183;29;19914;-76
2023/04/08 12:05:24;;;;;;;;;;;;;;;20.01;29.44;100801.84;4916781;29;19915;-75
2023/04/08 12:08:14;;;;;;;;;;;;;;;19.94;30.25;100799.00;4909604;29;19915;-76
2023/04/08 12:11:03;;;;;;;;;;;;;;;19.86;30.96;100786.31;4896355;29;19919;-75
2023/04/08 12:13:55;;;;;;;;;;;;;;;19.78;31.09;100796.44;4879235;29;19915;-76
2023/04/08 12:16:47;;;;;;;;;;;;;;;19.78;32.03;100790.91;4879149;29;20403;-76
2023/04/08 12:19:39;;;;;;;;;;;;;;;19.62;28.95;100790.31;4878951;29;19915;-76
2023/04/08 12:22:31;;;;;;;;;;;;;;;19.45;25.83;100786.19;4879115;29;19916;-75
2023/04/08 12:25:21;;;;;;;;;;;;;;;19.34;28.49;100790.72;4878970;29;19943;-76
2023/04/08 12:28:10;;;;;;;;;;;;;;;19.37;29.59;100787.19;4897287;29;19923;-76
2023/04/08 12:31:02;;;;;;;;;;;;;;;19.35;29.52;100784.00;4897267;29;19923;-76
2023/04/08 12:33:54;;;;;;;;;;;;;;;19.30;28.77;100783.56;4887278;29;19916;-76
2023/04/08 12:36:46;;;;;;;;;;;;;;;19.30;27.62;100791.84;4879732;29;19919;-76
2023/04/08 12:39:35;;;;;;;;;;;;;;;18.84;28.66;100791.91;4917681;29;19915;-77
2023/04/08 12:42:25;;;;;;;;;;;;;;;19.11;28.05;100785.25;4889158;29;19915;-76
2023/04/08 12:45:17;;;;;;;;;;;;;;;18.92;25.62;100779.03;4885206;29;19915;-76
2023/04/08 12:48:06;;;;;;;;;;;;;;;19.07;26.11;100784.41;4894105;29;19915;-76
2023/04/08 12:50:58;;;;;;;;;;;;;;;19.34;26.44;100785.19;4878387;29;19919;-77
2023/04/08 12:53:50;;;;;;;;;;;;;;;20.07;26.57;100789.28;4879096;29;19916;-76
2023/04/08 12:56:42;;;;;;;;;;;;;;;20.30;24.45;100776.13;4892827;29;19919;-76
2023/04/08 12:59:33;;;;;;;;;;;;;;;20.39;24.84;100771.13;4891090;29;19915;-76
2023/04/08 13:02:25;;;;;;;;;;;;;;;20.61;25.66;100780.41;4881486;29;20380;-76
2023/04/08 13:05:17;;;;;;;;;;;;;;;21.13;24.32;100770.91;4879248;29;19916;-76
2023/04/08 13:08:09;;;;;;;;;;;;;;;21.34;24.65;100765.53;4894906;29;19924;-76
2023/04/08 13:11:01;;;;;;;;;;;;;;;20.95;26.45;100763.69;4880178;29;20384;-76
2023/04/08 13:13:51;;;;;;;;;;;;;;;20.48;27.19;100765.28;4878353;29;19915;-76
2023/04/08 13:16:43;;;;;;;;;;;;;;;19.73;28.85;100763.66;4895007;29;19915;-76
2023/04/08 13:19:35;;;;;;;;;;;;;;;19.63;28.97;100761.56;4891661;29;20298;-76
2023/04/08 13:22:27;;;;;;;;;;;;;;;19.65;28.80;100767.50;4893960;29;19915;-76
2023/04/08 13:25:19;;;;;;;;;;;;;;;19.86;28.15;100758.69;4913946;29;19916;-76
2023/04/08 13:28:08;;;;;;;;;;;;;;;20.24;27.98;100758.31;4902463;29;19922;-76
2023/04/08 13:30:58;;;;;;;;;;;;;;;20.76;24.64;100761.97;4919244;29;19919;-76
2023/04/08 13:33:50;;;;;;;;;;;;;;;20.12;24.66;100755.81;4893504;29;19915;-77
2023/04/08 13:36:39;;;;;;;;;;;;;;;20.38;24.64;100752.16;4897732;29;19923;-75
2023/04/08 13:39:29;;;;;;;;;;;;;;;20.34;24.30;100749.38;4896893;29;19916;-75
2023/04/08 13:42:18;;;;;;;;;;;;;;;20.21;24.69;100752.75;4896930;29;19915;-75
2023/04/08 13:45:10;;;;;;;;;;;;;;;19.88;24.79;100751.63;4896787;29;19927;-76
2023/04/08 13:47:59;;;;;;;;;;;;;;;19.63;24.75;100756.03;4896747;29;20303;-76
2023/04/08 13:50:49;;;;;;;;;;;;;;;19.85;24.39;100746.88;4901376;29;19919;-75
2023/04/08 13:53:41;;;;;;;;;;;;;;;20.17;24.56;100741.66;4899904;29;19916;-74
2023/04/08 13:56:32;;;;;;;;;;;;;;;19.82;24.71;100742.06;4900352;29;20299;-77
2023/04/08 13:59:24;;;;;;;;;;;;;;;18.32;25.44;100734.72;4900419;29;19915;-76
2023/04/08 14:02:14;;;;;;;;;;;;;;;19.10;25.79;100733.22;4900176;29;19919;-76
2023/04/08 14:05:04;;;;;;;;;;;;;;;19.50;27.84;100741.72;4900263;29;19915;-75
2023/04/08 14:07:56;;;;;;;;;;;;;;;19.08;25.78;100735.56;4900657;29;20375;-76
2023/04/08 14:10:48;;;;;;;;;;;;;;;19.39;25.53;100735.22;4899764;29;19919;-76
2023/04/08 14:13:37;;;;;;;;;;;;;;;19.66;25.45;100735.19;4900727;29;19916;-76
2023/04/08 14:16:29;;;;;;;;;;;;;;;19.13;25.54;100729.75;4920888;29;19915;-77
2023/04/08 14:19:19;;;;;;;;;;;;;;;19.85;25.52;100733.06;4932066;29;19915;-76
2023/04/08 14:22:11;;;;;;;;;;;;;;;20.52;25.58;100735.69;4933111;29;19915;-75
2023/04/08 14:25:03;;;;;;;;;;;;;;;21.04;24.23;100734.50;4918593;29;19923;-77
2023/04/08 14:27:54;;;;;;;;;;;;;;;21.33;25.93;100730.00;4927198;29;19915;-76
2023/04/08 14:30:47;;;;;;;;;;;;;;;21.38;27.51;100731.59;4899404;29;20380;-76
2023/04/08 14:33:36;;;;;;;;;;;;;;;21.53;28.86;100727.69;4899694;29;20371;-76
2023/04/08 14:36:29;;;;;;;;;;;;;;;21.60;28.56;100730.47;4899432;29;19915;-76
2023/04/08 14:39:21;;;;;;;;;;;;;;;21.29;29.30;100729.94;4912843;29;19915;-77
2023/04/08 14:42:11;;;;;;;;;;;;;;;21.03;29.82;100730.16;4916049;29;19919;-76
2023/04/08 14:45:02;;;;;;;;;;;;;;;20.52;25.35;100730.16;4899467;29;19920;-76
2023/04/08 14:47:52;;;;;;;;;;;;;;;20.57;25.93;100731.81;4899235;29;19915;-76
2023/04/08 14:50:44;;;;;;;;;;;;;;;20.69;28.96;100728.75;4899041;29;19919;-75
2023/04/08 14:53:35;;;;;;;;;;;;;;;20.22;25.20;100733.03;4899349;29;20275;-76
2023/04/08 14:56:27;;;;;;;;;;;;;;;20.14;26.21;100731.38;4904206;29;19916;-80
2023/04/08 14:59:17;;;;;;;;;;;;;;;19.79;24.72;100731.00;4900279;29;20333;-79
2023/04/08 15:02:09;;;;;;;;;;;;;;;19.68;25.21;100724.56;4913353;29;19915;-77
2023/04/08 15:05:01;;;;;;;;;;;;;;;19.47;25.45;100733.38;4903911;29;19915;-77
2023/04/08 15:07:50;;;;;;;;;;;;;;;19.38;25.70;100728.13;4904460;29;20310;-85
2023/04/08 15:10:42;;;;;;;;;;;;;;;19.21;25.96;100734.97;4911231;29;19919;-80
2023/04/08 15:13:34;;;;;;;;;;;;;;;19.13;26.23;100729.75;4906318;29;19916;-77
2023/04/08 15:16:26;;;;;;;;;;;;;;;19.00;26.33;100734.66;4918872;29;19915;-77
2023/04/08 15:19:18;;;;;;;;;;;;;;;19.01;26.54;100736.25;4933431;29;20371;-79
2023/04/08 15:22:10;;;;;;;;;;;;;;;19.05;26.42;100737.09;4917567;29;19915;-75
2023/04/08 15:24:57;;;;;;;;;;;;;;;18.99;26.40;100744.13;4912467;29;19915;-77
2023/04/08 15:27:47;;;;;;;;;;;;;;;18.91;26.91;100741.59;4921585;29;19915;-77
2023/04/08 15:30:39;;;;;;;;;;;;;;;18.85;26.70;100743.09;4905666;29;19919;-77
2023/04/08 15:33:31;;;;;;;;;;;;;;;18.79;26.92;100739.88;4902386;29;19915;-76
2023/04/08 15:36:20;;;;;;;;;;;;;;;18.80;26.73;100753.25;4902013;29;19919;-77
2023/04/08 15:39:12;;;;;;;;;;;;;;;18.84;26.75;100749.78;4899068;29;19915;-77
2023/04/08 15:42:04;;;;;;;;;;;;;;;18.82;26.79;100754.84;4898212;29;19915;-76
2023/04/08 15:44:55;;;;;;;;;;;;;;;18.84;26.87;100760.81;4900722;29;19914;-76
2023/04/08 15:47:47;;;;;;;;;;;;;;;18.75;27.15;100756.34;4909278;29;19915;-76
2023/04/08 15:50:39;;;;;;;;;;;;;;;18.73;27.37;100755.94;4914029;29;19915;-76
2023/04/08 15:53:31;;;;;;;;;;;;;;;18.66;27.69;100757.75;4903611;29;19915;-76
2023/04/08 15:56:20;;;;;;;;;;;;;;;18.65;27.75;100761.66;4911976;29;19927;-77
2023/04/08 15:59:10;;;;;;;;;;;;;;;18.53;27.86;100770.91;4895765;29;19923;-78
2023/04/08 16:02:02;;;;;;;;;;;;;;;18.50;27.42;100774.38;4907860;29;19915;-77
2023/04/08 16:04:52;;;;;;;;;;;;;;;18.30;27.51;100781.09;4922130;29;19915;-78
2023/04/08 16:07:41;;;;;;;;;;;;;;;18.29;27.91;100780.28;4920107;29;19934;-78
2023/04/08 16:10:33;;;;;;;;;;;;;;;18.31;28.26;100788.19;4918902;29;20324;-78
2023/04/08 16:13:25;;;;;;;;;;;;;;;18.13;29.80;100784.31;4902699;29;19915;-76
2023/04/08 16:16:17;;;;;;;;;;;;;;;17.86;30.38;100799.91;4900756;29;19916;-77
2023/04/08 16:19:09;;;;;;;;;;;;;;;17.45;36.12;100798.59;4897949;29;20387;-77
2023/04/08 16:22:02;;;;;;;;;;;;;;;17.02;39.13;100829.78;4901640;29;20364;-77
2023/04/08 16:24:51;;;;;;;;;;;;;;;16.89;40.01;100842.84;4897762;29;19915;-77
2023/04/08 16:27:43;;;;;;;;;;;;;;;16.53;41.91;100845.78;4897386;29;20435;-77